Time;durP1;ratioP1;P1;durP2;ratioP2;P2;SDS_P1;SDS_P2;PMS_P1;PMS_P2;Temp;Humidity;BMP_temperature;BMP_pressure;BME280_temperature;BME280_humidity;BME280_pressure;Samples;Min_cycle;Max_cycle;Signal;HPM_P1;HPM_P2
2021/05/17 00:02:00;;;;;;;12.75;6.25;;;;;;;30.27;61.31;100776.47;5052539;28;69337;-38
2021/05/17 00:04:34;;;;;;;12.65;5.60;;;;;;;30.57;61.71;100810.19;5051963;28;65742;-37
2021/05/17 00:07:07;;;;;;;7.72;6.00;;;;;;;30.37;61.54;100772.44;5055915;28;69842;-39
2021/05/17 00:09:39;;;;;;;12.68;5.40;;;;;;;30.66;62.14;100831.34;5051722;28;66696;-38
2021/05/17 00:12:10;;;;;;;11.10;5.63;;;;;;;30.65;62.17;100824.28;5055680;28;69772;-37
2021/05/17 00:14:41;;;;;;;16.23;5.80;;;;;;;30.68;61.14;100828.44;5060490;27;66328;-38
2021/05/17 00:17:12;;;;;;;13.70;5.63;;;;;;;30.75;63.36;100839.19;5055567;28;70430;-37
2021/05/17 00:19:42;;;;;;;10.38;5.45;;;;;;;30.75;63.74;100817.53;5054475;28;64908;-38
2021/05/17 00:22:13;;;;;;;15.25;5.55;;;;;;;30.84;62.86;100827.06;5051340;28;69308;-37
2021/05/17 00:24:44;;;;;;;8.20;4.50;;;;;;;30.74;63.45;100800.47;5055263;28;65919;-39
2021/05/17 00:27:14;;;;;;;8.77;5.47;;;;;;;30.83;63.50;100809.16;5052179;28;69291;-38
2021/05/17 00:29:45;;;;;;;12.50;5.03;;;;;;;30.84;63.98;100810.81;5058371;28;65333;-39
2021/05/17 00:32:15;;;;;;;6.25;4.68;;;;;;;30.87;64.10;100804.94;5051958;28;70024;-39
2021/05/17 00:34:46;;;;;;;8.82;5.25;;;;;;;30.90;63.53;100799.13;5057297;28;65389;-39
2021/05/17 00:37:17;;;;;;;14.40;5.30;;;;;;;30.88;63.64;100790.38;5053885;28;69864;-39
2021/05/17 00:39:47;;;;;;;5.90;4.50;;;;;;;30.93;63.19;100785.13;5058921;28;65875;-39
2021/05/17 00:42:18;;;;;;;7.25;4.72;;;;;;;30.95;63.34;100796.53;5058490;28;69977;-39
2021/05/17 00:44:49;;;;;;;10.43;5.10;;;;;;;30.81;63.25;100767.94;5055395;28;65789;-39
2021/05/17 00:47:20;;;;;;;7.93;4.10;;;;;;;31.00;63.04;100804.84;5056052;28;69813;-39
2021/05/17 00:49:51;;;;;;;7.03;4.07;;;;;;;30.93;62.68;100802.19;5059176;28;66241;-39
2021/05/17 00:52:21;;;;;;;7.57;4.60;;;;;;;31.05;62.35;100820.44;5053266;28;69907;-39
2021/05/17 00:54:53;;;;;;;5.38;4.22;;;;;;;31.08;62.35;100818.09;5052965;28;65110;-39
2021/05/17 00:57:24;;;;;;;;;;;;;;;30.89;63.65;100813.69;5060489;28;69138;-39
2021/05/17 00:59:55;;;;;;;9.82;4.07;;;;;;;31.09;62.46;100798.09;5055966;28;66019;-39
2021/05/17 01:02:26;;;;;;;4.82;3.97;;;;;;;31.08;62.18;100801.84;5053273;28;70724;-39
2021/05/17 01:05:18;;;;;;;4.87;4.37;;;;;;;31.13;62.36;100812.84;5052472;28;65701;-39
2021/05/17 01:07:50;;;;;;;5.05;3.78;;;;;;;31.19;62.07;100821.13;5054933;28;69332;-40
2021/05/17 01:10:22;;;;;;;6.40;3.78;;;;;;;30.87;61.31;100773.31;5047347;28;66120;-40
2021/05/17 01:12:52;;;;;;;4.38;3.65;;;;;;;31.23;61.03;100834.03;5047061;28;70182;-39
2021/05/17 01:15:24;;;;;;;4.15;3.22;;;;;;;31.25;61.42;100833.78;5049470;28;65539;-38
2021/05/17 01:17:55;;;;;;;4.95;4.05;;;;;;;30.92;61.06;100781.59;5058530;28;69281;-39
2021/05/17 01:20:30;;;;;;;7.13;3.92;;;;;;;31.28;61.29;100839.56;5056568;28;65877;-39
2021/05/17 01:24:05;;;;;;;3.53;3.22;;;;;;;31.23;61.82;100830.47;5052301;28;70868;-38
2021/05/17 01:26:14;;;;;;;3.88;3.47;;;;;;;30.94;60.84;100781.34;5047414;28;66249;-38
2021/05/17 01:28:47;;;;;;;3.85;3.38;;;;;;;31.32;60.94;100838.09;5059139;28;69853;-40
2021/05/17 01:31:18;;;;;;;3.92;3.53;;;;;;;31.36;60.50;100847.44;5052467;28;65977;-38
2021/05/17 01:33:49;;;;;;;3.77;3.47;;;;;;;31.32;60.48;100829.13;5056392;28;70301;-38
2021/05/17 01:36:24;;;;;;;7.10;3.80;;;;;;;31.40;60.54;100842.44;5054976;28;66078;-39
2021/05/17 01:38:56;;;;;;;4.00;3.70;;;;;;;31.42;60.42;100851.13;5050787;28;69218;-39
2021/05/17 01:41:28;;;;;;;3.75;3.38;;;;;;;31.44;60.02;100849.03;5050763;28;65985;-39
2021/05/17 01:44:02;;;;;;;3.63;3.33;;;;;;;31.46;60.12;100856.97;5055757;28;70150;-40
2021/05/17 01:46:35;;;;;;;3.83;3.55;;;;;;;31.49;60.32;100851.91;5067950;27;66163;-39
2021/05/17 01:49:14;;;;;;;3.40;3.10;;;;;;;31.49;60.18;100846.50;5053772;28;69668;-38
2021/05/17 01:51:49;;;;;;;3.65;3.35;;;;;;;31.54;60.38;100854.78;5051767;28;66193;-39
2021/05/17 01:54:21;;;;;;;3.55;3.08;;;;;;;31.49;59.74;100846.50;5071338;28;70036;-39
2021/05/17 01:56:56;;;;;;;3.63;3.25;;;;;;;31.15;59.63;100791.78;5053521;28;65504;-38
2021/05/17 01:59:34;;;;;;;3.53;3.22;;;;;;;31.59;59.87;100863.06;5048630;28;69021;-39
2021/05/17 02:02:08;;;;;;;4.00;3.70;;;;;;;31.63;59.97;100868.03;5053542;28;65993;-40
2021/05/17 02:04:39;;;;;;;3.78;3.47;;;;;;;31.64;59.91;100864.25;5053187;28;70965;-39
2021/05/17 02:07:11;;;;;;;4.22;3.92;;;;;;;31.64;59.73;100869.69;5056149;28;65988;-40
2021/05/17 02:09:48;;;;;;;4.25;3.85;;;;;;;31.66;59.87;100871.13;5069441;27;70136;-39
2021/05/17 02:12:32;;;;;;;3.58;3.38;;;;;;;31.41;59.92;100827.81;5058605;28;65717;-40
2021/05/17 02:15:23;;;;;;;4.60;4.20;;;;;;;31.70;59.92;100866.06;5055041;28;70333;-40
2021/05/17 02:18:06;;;;;;;4.18;3.83;;;;;;;31.66;59.60;100851.31;5052588;28;65216;-39
2021/05/17 02:20:41;;;;;;;4.97;4.53;;;;;;;31.42;59.65;100809.66;5050496;28;70133;-39
2021/05/17 02:23:16;;;;;;;5.57;4.07;;;;;;;31.76;58.96;100857.88;5055851;28;66990;-39
2021/05/17 02:25:51;;;;;;;4.22;3.83;;;;;;;31.74;59.35;100845.59;5043117;28;71218;-39
2021/05/17 02:28:27;;;;;;;4.05;3.75;;;;;;;31.84;59.29;100856.72;5040552;28;65856;-38
2021/05/17 02:31:01;;;;;;;3.88;3.60;;;;;;;31.88;58.78;100863.34;5044732;28;70257;-39
2021/05/17 02:33:42;;;;;;;4.22;3.92;;;;;;;31.89;59.32;100856.84;5053794;28;65400;-39
2021/05/17 02:36:14;;;;;;;3.85;3.55;;;;;;;31.92;58.58;100840.16;5054675;28;70151;-39
2021/05/17 02:38:48;;;;;;;4.22;3.92;;;;;;;31.94;58.89;100848.06;5033409;28;66281;-39
2021/05/17 02:41:22;;;;;;;3.37;3.17;;;;;;;31.85;58.82;100823.13;5037205;28;70663;-39
2021/05/17 02:43:58;;;;;;;3.50;3.30;;;;;;;32.01;58.68;100838.81;5030987;28;67928;-39
2021/05/17 02:46:31;;;;;;;3.92;3.58;;;;;;;32.04;58.75;100827.50;5055856;28;69242;-40
2021/05/17 02:49:02;;;;;;;4.17;3.73;;;;;;;32.05;58.77;100828.31;5053091;28;66075;-40
2021/05/17 02:51:33;;;;;;;3.75;3.45;;;;;;;32.05;58.51;100814.75;5051804;28;69986;-40
2021/05/17 02:54:10;;;;;;;3.83;3.50;;;;;;;32.12;58.77;100825.50;5053257;28;66942;-40
2021/05/17 02:56:59;;;;;;;3.50;3.20;;;;;;;32.08;58.89;100817.00;5054191;28;69495;-40
2021/05/17 02:59:59;;;;;;;3.63;3.33;;;;;;;32.01;58.34;100808.97;5053115;28;66524;-40
2021/05/17 03:02:38;;;;;;;3.38;3.17;;;;;;;31.92;58.22;100772.34;5049728;28;69522;-40
2021/05/17 03:05:15;;;;;;;3.65;3.35;;;;;;;32.22;58.57;100809.50;5055163;28;65378;-40
2021/05/17 03:07:59;;;;;;;5.00;3.30;;;;;;;32.26;57.86;100807.97;5038952;28;70501;-39
2021/05/17 03:10:42;;;;;;;6.20;3.42;;;;;;;31.91;58.24;100746.28;5049255;28;65651;-39
2021/05/17 03:13:18;;;;;;;4.35;3.08;;;;;;;32.31;58.13;100799.94;5051100;28;68952;-39
2021/05/17 03:15:50;;;;;;;3.10;2.90;;;;;;;32.29;58.10;100791.22;5053664;28;66286;-40
2021/05/17 03:18:26;;;;;;;3.63;3.33;;;;;;;32.30;57.87;100782.03;5050051;28;69799;-38
2021/05/17 03:21:01;;;;;;;3.10;2.83;;;;;;;32.41;58.02;100799.41;5051533;28;65275;-40
2021/05/17 03:23:35;;;;;;;3.50;3.30;;;;;;;32.42;57.97;100791.00;5053183;28;70094;-39
2021/05/17 03:26:09;;;;;;;3.58;3.25;;;;;;;32.45;57.84;100797.84;5056870;28;65260;-39
2021/05/17 03:28:41;;;;;;;3.10;2.90;;;;;;;32.43;57.70;100787.25;5052530;28;69725;-40
2021/05/17 03:31:13;;;;;;;3.20;2.88;;;;;;;32.46;57.83;100781.38;5056582;28;65112;-39
2021/05/17 03:33:45;;;;;;;3.13;2.80;;;;;;;32.47;57.59;100787.63;5055452;28;69938;-39
2021/05/17 03:36:18;;;;;;;3.20;3.00;;;;;;;32.52;57.56;100790.47;5056242;28;65235;-39
2021/05/17 03:38:50;;;;;;;3.03;2.83;;;;;;;32.54;57.81;100801.09;5051129;28;69854;-39
2021/05/17 03:41:21;;;;;;;3.28;2.97;;;;;;;32.53;57.85;100802.16;5054230;28;66024;-39
2021/05/17 03:43:55;;;;;;;2.90;2.70;;;;;;;32.56;57.46;100807.13;5045091;28;69348;-39
2021/05/17 03:46:27;;;;;;;3.67;3.30;;;;;;;32.51;57.59;100788.81;5048153;28;65998;-40
2021/05/17 03:49:01;;;;;;;3.55;3.25;;;;;;;32.59;57.67;100795.78;5049304;28;70196;-39
2021/05/17 03:51:40;;;;;;;3.53;2.95;;;;;;;32.60;57.61;100792.03;5049031;28;64916;-40
2021/05/17 03:54:13;;;;;;;3.17;2.88;;;;;;;32.61;57.77;100788.25;5052287;28;70070;-39
2021/05/17 03:56:44;;;;;;;3.20;3.00;;;;;;;32.50;57.56;100762.72;5050635;28;65304;-39
2021/05/17 03:59:17;;;;;;;3.20;3.00;;;;;;;32.66;57.33;100781.03;5053771;28;69439;-40
2021/05/17 04:01:49;;;;;;;2.95;2.75;;;;;;;32.66;57.50;100775.63;5052283;28;65229;-39
2021/05/17 04:04:26;;;;;;;3.40;3.10;;;;;;;32.71;57.46;100766.78;5056413;27;70112;-40
2021/05/17 04:15:55;;;;;;;3.50;2.92;;;;;;;32.70;57.27;100746.09;5058090;28;69861;-38
2021/05/17 04:18:36;;;;;;;;;;;;;;;32.54;57.89;100757.66;5058052;28;66560;-39
2021/05/17 04:21:15;;;;;;;2.70;2.53;;;;;;;32.74;57.42;100743.75;5056192;28;70046;-39
2021/05/17 04:23:49;;;;;;;2.67;2.47;;;;;;;32.85;57.14;100746.44;5058598;28;66649;-39
2021/05/17 04:26:22;;;;;;;3.75;2.80;;;;;;;32.91;57.04;100740.06;5060169;28;69906;-38
2021/05/17 04:28:53;;;;;;;2.85;2.65;;;;;;;32.90;56.89;100735.72;5049074;28;66016;-39
2021/05/17 04:31:23;;;;;;;2.70;2.50;;;;;;;32.94;56.91;100739.59;5058318;28;70180;-39
2021/05/17 04:33:59;;;;;;;3.25;3.05;;;;;;;32.91;57.13;100722.94;5050539;28;65622;-39
2021/05/17 04:36:31;;;;;;;2.60;2.40;;;;;;;32.94;56.98;100739.59;5052848;28;71506;-39
2021/05/17 04:39:04;;;;;;;2.80;2.60;;;;;;;32.95;56.88;100734.97;5058854;27;65429;-39
2021/05/17 04:41:34;;;;;;;2.72;2.53;;;;;;;33.01;56.64;100733.22;5057414;27;69737;-39
2021/05/17 04:44:05;;;;;;;2.63;2.42;;;;;;;33.00;56.78;100715.28;5054544;28;65969;-39
2021/05/17 04:46:36;;;;;;;2.90;2.70;;;;;;;33.01;56.67;100720.47;5055180;28;70112;-39
2021/05/17 04:49:11;;;;;;;3.08;2.78;;;;;;;33.05;56.67;100715.38;5052999;28;66134;-39
2021/05/17 04:51:42;;;;;;;2.60;2.33;;;;;;;33.18;56.66;100712.38;5054673;28;70887;-39
2021/05/17 04:54:17;;;;;;;2.90;2.70;;;;;;;33.19;56.25;100702.38;5052172;28;66506;-38
2021/05/17 04:56:48;;;;;;;2.97;2.70;;;;;;;33.21;56.53;100690.19;5017040;28;68398;-38
2021/05/17 04:59:47;;;;;;;2.75;2.55;;;;;;;33.27;56.71;100697.38;5042828;28;65172;-39
2021/05/17 05:02:20;;;;;;;2.50;2.30;;;;;;;33.32;56.30;100702.06;5056788;28;70116;-39
2021/05/17 05:04:52;;;;;;;2.72;2.53;;;;;;;33.29;56.70;100687.09;5055952;28;65569;-39
2021/05/17 05:07:22;;;;;;;2.67;2.47;;;;;;;33.28;56.39;100695.47;5052183;28;69668;-39
2021/05/17 05:09:53;;;;;;;2.40;2.20;;;;;;;33.31;56.62;100679.50;5059826;28;65975;-40
2021/05/17 05:12:27;;;;;;;2.45;2.33;;;;;;;32.55;56.40;100555.66;5054669;28;69187;-39
2021/05/17 05:15:05;;;;;;;2.30;2.10;;;;;;;33.35;56.28;100680.69;5056140;28;67139;-39
2021/05/17 05:17:37;;;;;;;2.58;2.38;;;;;;;33.37;56.23;100674.97;5056562;28;70053;-39
2021/05/17 05:20:08;;;;;;;2.60;2.40;;;;;;;33.23;56.11;100639.09;5049518;28;68055;-39
2021/05/17 05:22:40;;;;;;;2.45;2.25;;;;;;;33.36;56.31;100655.13;5053561;28;69735;-39
2021/05/17 05:25:15;;;;;;;2.42;2.25;;;;;;;33.34;56.31;100654.53;5055840;28;65769;-39
2021/05/17 05:28:07;;;;;;;2.70;2.50;;;;;;;33.35;56.20;100648.06;5063867;27;70044;-40
2021/05/17 05:33:20;;;;;;;2.38;2.25;;;;;;;33.37;56.55;100651.34;5056228;28;69760;-39
2021/05/17 05:35:51;;;;;;;2.58;2.38;;;;;;;33.37;56.17;100640.47;5055992;28;65020;-38
2021/05/17 05:38:26;;;;;;;2.63;2.42;;;;;;;33.40;56.37;100641.88;5052758;28;69100;-39
2021/05/17 05:40:59;;;;;;;2.83;2.63;;;;;;;33.38;56.12;100625.81;5048417;28;66181;-39
2021/05/17 05:43:33;;;;;;;3.85;2.30;;;;;;;33.36;56.23;100611.63;5053249;28;69920;-39
2021/05/17 05:46:04;;;;;;;2.53;2.33;;;;;;;33.44;56.52;100617.75;5051527;28;66613;-39
2021/05/17 05:48:49;;;;;;;2.60;2.20;;;;;;;33.49;56.25;100615.09;5054916;28;69066;-39
2021/05/17 05:51:23;;;;;;;2.67;2.47;;;;;;;33.55;55.83;100608.75;5047899;28;65808;-40
2021/05/17 05:53:56;;;;;;;4.43;2.53;;;;;;;33.58;56.06;100602.81;5049278;28;69966;-39
2021/05/17 05:56:28;;;;;;;2.78;2.08;;;;;;;33.45;55.86;100570.44;5054754;28;66356;-40
2021/05/17 05:58:59;;;;;;;2.45;2.25;;;;;;;33.58;56.37;100590.03;5053218;28;70346;-38
2021/05/17 06:01:31;;;;;;;2.63;2.28;;;;;;;33.62;56.12;100587.63;5050820;28;65932;-39
2021/05/17 06:04:01;;;;;;;3.75;2.10;;;;;;;33.65;56.33;100572.72;5053519;28;69071;-39
2021/05/17 06:06:36;;;;;;;2.22;2.05;;;;;;;33.68;55.93;100570.31;5052338;28;66558;-39
2021/05/17 06:09:12;;;;;;;2.33;2.20;;;;;;;33.75;55.72;100565.56;5055701;28;69805;-39
2021/05/17 06:11:44;;;;;;;2.30;2.10;;;;;;;33.76;55.74;100561.75;5052193;28;66573;-39
2021/05/17 06:14:19;;;;;;;1.92;1.83;;;;;;;33.83;55.65;100560.78;5046332;28;69734;-39
2021/05/17 06:16:50;;;;;;;2.17;2.08;;;;;;;33.88;55.64;100553.53;5049420;28;65912;-39
2021/05/17 06:19:29;;;;;;;2.47;2.05;;;;;;;33.90;55.74;100550.53;5054338;28;69450;-39
2021/05/17 06:22:03;;;;;;;2.15;1.95;;;;;;;33.82;55.85;100535.44;5053111;28;66005;-39
2021/05/17 06:24:38;;;;;;;1.85;1.75;;;;;;;33.87;55.85;100540.97;5045625;28;69842;-39
2021/05/17 06:27:15;;;;;;;2.22;2.03;;;;;;;33.87;55.62;100523.84;5053013;28;66332;-38
2021/05/17 06:29:46;;;;;;;4.35;2.00;;;;;;;33.84;55.98;100524.34;5039262;28;72427;-39
2021/05/17 06:32:46;;;;;;;2.15;1.92;;;;;;;33.82;56.02;100532.72;5053096;28;66122;-39
2021/05/17 06:35:27;;;;;;;2.17;1.98;;;;;;;33.80;55.93;100546.59;5054357;28;70165;-39
2021/05/17 06:37:58;;;;;;;2.58;2.20;;;;;;;33.73;56.06;100539.66;5053720;28;66576;-38
2021/05/17 06:40:44;;;;;;;3.17;1.75;;;;;;;33.72;55.83;100549.72;5054309;28;69549;-39
2021/05/17 06:43:22;;;;;;;4.78;1.90;;;;;;;33.74;56.05;100544.88;5055140;28;66072;-39
2021/05/17 06:45:55;;;;;;;1.92;1.80;;;;;;;33.75;56.25;100543.78;5050969;28;70827;-39
2021/05/17 06:48:33;;;;;;;2.88;1.75;;;;;;;33.75;56.27;100537.53;5053933;28;66204;-39
2021/05/17 06:51:05;;;;;;;2.83;2.08;;;;;;;33.70;56.21;100519.22;5050814;28;70096;-39
2021/05/17 06:53:36;;;;;;;2.10;1.90;;;;;;;33.62;56.44;100500.59;5059131;28;65882;-40
2021/05/17 06:56:11;;;;;;;2.97;2.10;;;;;;;33.72;56.61;100527.97;5053702;28;69911;-39
2021/05/17 06:58:53;;;;;;;2.35;2.03;;;;;;;33.71;56.44;100526.34;5052860;28;65943;-39
2021/05/17 07:01:26;;;;;;;1.95;1.77;;;;;;;33.44;56.60;100515.25;5051898;28;70216;-39
2021/05/17 07:03:57;;;;;;;2.35;2.15;;;;;;;33.68;56.93;100556.72;5049416;28;66997;-39
2021/05/17 07:06:33;;;;;;;1.83;1.73;;;;;;;33.69;56.58;100561.13;5037746;28;69729;-39
2021/05/17 07:12:10;;;;;;;1.75;1.65;;;;;;;33.65;56.89;100529.19;5050347;28;70337;-38
2021/05/17 07:14:42;;;;;;;5.60;1.95;;;;;;;33.64;56.81;100512.06;5050798;28;65864;-39
2021/05/17 07:17:16;;;;;;;1.75;1.65;;;;;;;33.62;56.98;100511.47;5053790;28;70244;-39
2021/05/17 07:19:47;;;;;;;;;;;;;;;33.34;57.68;100520.50;5057642;28;65321;-39
2021/05/17 07:25:10;;;;;;;2.10;1.92;;;;;;;33.60;56.87;100521.81;5051257;27;66696;-40
2021/05/17 07:27:43;;;;;;;1.70;1.60;;;;;;;33.62;56.93;100532.41;5054351;28;69845;-39
2021/05/17 07:30:14;;;;;;;2.05;1.95;;;;;;;33.59;56.84;100517.41;5053846;28;66094;-39
2021/05/17 07:32:46;;;;;;;1.85;1.67;;;;;;;33.58;56.92;100500.28;5052281;28;72046;-40
2021/05/17 07:35:17;;;;;;;2.13;1.95;;;;;;;33.56;57.19;100485.28;5052876;28;65943;-40
2021/05/17 07:37:49;;;;;;;2.30;2.10;;;;;;;33.59;56.82;100477.44;5055377;28;69741;-39
2021/05/17 07:40:19;;;;;;;1.98;1.70;;;;;;;33.61;56.75;100460.88;5051579;28;66256;-39
2021/05/17 07:42:54;;;;;;;1.88;1.65;;;;;;;33.61;56.89;100455.44;5047638;28;70307;-39
2021/05/17 07:45:47;;;;;;;1.90;1.77;;;;;;;33.63;56.91;100439.72;5051067;28;66431;-39
2021/05/17 07:48:20;;;;;;;2.13;1.67;;;;;;;33.64;56.90;100443.25;5042593;28;69749;-39
2021/05/17 07:50:57;;;;;;;2.25;2.10;;;;;;;33.65;57.01;100434.81;5051106;28;66413;-39
2021/05/17 07:53:31;;;;;;;2.40;2.10;;;;;;;33.65;56.86;100423.13;5052397;28;69805;-39
2021/05/17 07:56:03;;;;;;;3.25;1.73;;;;;;;33.67;56.83;100416.38;5054676;28;65544;-39
2021/05/17 07:58:39;;;;;;;1.80;1.70;;;;;;;33.68;57.10;100418.00;5050361;28;70617;-39
2021/05/17 08:01:21;;;;;;;;;;;;;;;33.42;57.63;100424.94;5052826;28;65817;-39
2021/05/17 08:03:52;;;;;;;1.92;1.75;;;;;;;33.66;57.14;100420.19;5052855;28;69951;-40
2021/05/17 08:06:24;;;;;;;1.88;1.77;;;;;;;33.72;56.75;100423.78;5051266;28;65109;-39
2021/05/17 08:08:58;;;;;;;2.17;1.95;;;;;;;33.78;56.70;100437.19;5044402;28;69061;-40
2021/05/17 08:11:31;;;;;;;2.42;2.00;;;;;;;33.79;56.88;100441.59;5051412;28;66501;-38
2021/05/17 08:14:02;;;;;;;2.03;1.80;;;;;;;33.73;56.91;100426.25;5054150;28;69029;-38
2021/05/17 08:16:34;;;;;;;4.07;2.23;;;;;;;33.83;57.04;100430.19;5053056;28;66850;-38
2021/05/17 08:19:05;;;;;;;2.10;1.85;;;;;;;33.86;56.84;100426.97;5045497;28;69743;-39
2021/05/17 08:21:50;;;;;;;3.47;1.92;;;;;;;33.87;56.68;100417.72;5052455;28;66169;-40
2021/05/17 08:24:22;;;;;;;1.77;1.67;;;;;;;33.88;56.89;100416.63;5052624;28;69591;-40
2021/05/17 08:26:57;;;;;;;5.07;1.83;;;;;;;33.89;56.64;100429.19;5053709;28;65954;-39
2021/05/17 08:29:34;;;;;;;2.13;1.88;;;;;;;33.88;56.77;100432.97;5050858;28;70096;-39
2021/05/17 08:32:09;;;;;;;1.70;1.60;;;;;;;33.92;56.58;100445.00;5049791;28;66388;-39
2021/05/17 08:34:42;;;;;;;5.18;1.70;;;;;;;33.92;56.52;100467.59;5054600;28;69552;-40
2021/05/17 08:37:16;;;;;;;2.20;1.75;;;;;;;33.93;56.85;100482.81;5054136;28;65985;-40
2021/05/17 08:39:54;;;;;;;2.03;1.65;;;;;;;33.94;56.60;100486.41;5048191;28;69749;-39
2021/05/17 08:42:33;;;;;;;1.75;1.50;;;;;;;33.92;56.20;100480.38;5049759;28;66667;-39
2021/05/17 08:45:05;;;;;;;1.60;1.47;;;;;;;33.90;56.54;100463.47;5052792;28;70223;-39
2021/05/17 08:47:37;;;;;;;1.52;1.42;;;;;;;33.78;56.48;100420.06;5050688;28;66034;-40
2021/05/17 08:50:09;;;;;;;;;;;;;;;33.64;57.29;100427.75;5055581;28;70027;-40
2021/05/17 08:52:42;;;;;;;;;;;;;;;33.59;57.45;100405.91;5052971;28;65316;-39
2021/05/17 08:55:19;;;;;;;1.75;1.38;;;;;;;33.77;56.73;100391.22;5044726;28;69436;-38
2021/05/17 08:57:52;;;;;;;1.52;1.42;;;;;;;33.84;56.78;100394.56;5053550;28;66478;-39
2021/05/17 09:00:24;;;;;;;2.25;1.60;;;;;;;33.88;56.92;100416.63;5053212;28;70139;-40
2021/05/17 09:02:56;;;;;;;1.55;1.40;;;;;;;33.85;56.69;100411.69;5052594;28;66841;-41
2021/05/17 09:05:35;;;;;;;1.85;1.20;;;;;;;33.79;56.59;100397.22;5058439;28;69921;-39
2021/05/17 09:08:06;;;;;;;2.28;1.40;;;;;;;33.83;56.67;100408.44;5054229;28;66056;-39
2021/05/17 09:10:38;;;;;;;;;;;;;;;33.53;57.32;100420.53;5052830;28;69965;-39
2021/05/17 09:13:18;;;;;;;2.13;1.20;;;;;;;33.75;56.90;100437.69;5052670;28;66410;-40
2021/05/17 09:15:51;;;;;;;2.00;1.50;;;;;;;33.75;56.73;100462.19;5056683;28;70197;-39
2021/05/17 09:18:35;;;;;;;1.92;1.45;;;;;;;33.74;56.68;100487.75;5053977;28;66139;-39
2021/05/17 09:21:06;;;;;;;1.20;1.10;;;;;;;33.72;56.85;100492.59;5052570;28;70845;-40
2021/05/17 09:23:41;;;;;;;1.88;1.33;;;;;;;33.71;56.93;100499.13;5058766;28;65395;-39
2021/05/17 09:26:17;;;;;;;1.40;1.23;;;;;;;33.42;56.71;100451.31;5052749;28;69351;-39
2021/05/17 09:28:53;;;;;;;1.20;1.10;;;;;;;33.70;56.95;100505.63;5057444;28;66472;-39
2021/05/17 09:31:26;;;;;;;2.05;1.65;;;;;;;33.68;56.99;100506.94;5061124;28;69308;-39
2021/05/17 09:34:03;;;;;;;1.27;1.17;;;;;;;33.65;57.07;100505.53;5058604;28;66501;-38
2021/05/17 09:36:41;;;;;;;2.72;1.40;;;;;;;33.63;57.15;100485.94;5055119;28;69203;-39
2021/05/17 09:39:17;;;;;;;2.33;1.70;;;;;;;33.64;56.99;100503.91;5050512;28;66004;-39
2021/05/17 09:41:56;;;;;;;3.63;1.40;;;;;;;33.56;57.06;100513.28;5054678;28;68895;-39
2021/05/17 09:44:29;;;;;;;1.92;1.20;;;;;;;33.34;57.23;100507.72;5053778;28;65316;-40
2021/05/17 09:47:05;;;;;;;2.25;1.45;;;;;;;33.59;57.31;100558.22;5052243;28;69895;-40
2021/05/17 09:49:56;;;;;;;3.42;1.48;;;;;;;33.55;57.29;100555.16;5052016;28;65561;-39
2021/05/17 09:52:29;;;;;;;1.40;1.30;;;;;;;33.20;57.39;100481.94;5051588;28;70008;-41
2021/05/17 09:55:09;;;;;;;3.40;1.60;;;;;;;33.50;57.68;100541.44;5055096;28;65438;-40
2021/05/17 09:57:43;;;;;;;1.88;1.25;;;;;;;33.52;57.21;100533.06;5050214;28;70389;-40
2021/05/17 10:00:19;;;;;;;1.50;1.38;;;;;;;33.20;57.58;100494.72;5050263;28;65606;-40
2021/05/17 10:02:56;;;;;;;2.22;1.30;;;;;;;33.46;57.72;100543.03;5046580;28;71326;-39
2021/05/17 10:05:35;;;;;;;11.45;1.70;;;;;;;33.10;58.65;100498.09;5047297;28;65874;-38
2021/05/17 10:08:22;;;;;;;8.73;2.08;;;;;;;33.29;59.66;100545.72;5049510;28;70177;-39
2021/05/17 10:10:55;;;;;;;12.10;2.90;;;;;;;33.27;60.28;100569.59;5048309;28;65959;-41
2021/05/17 10:13:33;;;;;;;3.53;1.77;;;;;;;32.91;60.68;100539.00;5048441;28;69437;-40
2021/05/17 10:16:09;;;;;;;4.05;2.90;;;;;;;33.15;60.69;100576.97;5049138;28;66122;-40
2021/05/17 10:18:41;;;;;;;5.65;2.60;;;;;;;33.09;61.08;100577.94;5048357;27;69909;-40
2021/05/17 10:21:18;;;;;;;4.47;2.50;;;;;;;32.94;61.08;100554.81;5050054;28;66248;-41
2021/05/17 10:23:49;;;;;;;5.55;2.45;;;;;;;32.99;61.23;100566.84;5048628;28;69851;-39
2021/05/17 10:26:25;;;;;;;9.02;3.08;;;;;;;32.93;61.32;100569.50;5049945;28;66949;-39
2021/05/17 10:29:00;;;;;;;5.40;2.95;;;;;;;32.98;61.27;100574.19;5049133;28;69296;-38
2021/05/17 10:31:30;;;;;;;6.53;2.75;;;;;;;32.97;61.23;100569.00;5047875;28;65845;-39
2021/05/17 10:34:09;;;;;;;6.85;3.08;;;;;;;32.97;61.36;100571.72;5049206;28;69852;-39
2021/05/17 10:36:56;;;;;;;2.97;2.67;;;;;;;32.55;61.41;100512.22;5050742;28;66206;-39
2021/05/17 10:39:44;;;;;;;4.47;3.15;;;;;;;32.92;61.63;100572.44;5048486;28;68999;-39
2021/05/17 10:48:12;;;;;;;5.07;2.85;;;;;;;32.77;61.85;100570.25;5055491;28;65559;-39
2021/05/17 10:50:47;;;;;;;9.07;3.35;;;;;;;32.65;62.17;100550.44;5056699;28;70198;-38
2021/05/17 10:53:42;;;;;;;11.27;3.60;;;;;;;32.77;62.94;100585.72;5055669;28;66286;-39
2021/05/17 10:56:15;;;;;;;6.88;3.83;;;;;;;32.43;63.68;100526.63;5049958;28;69976;-39
2021/05/17 11:02:13;;;;;;;5.18;4.20;;;;;;;32.72;63.70;100578.28;5057304;28;69657;-40
2021/05/17 11:04:49;;;;;;;4.22;3.90;;;;;;;32.80;63.52;100580.63;5049076;28;66261;-40
2021/05/17 11:07:31;;;;;;;6.55;3.83;;;;;;;32.63;63.39;100564.25;5050302;28;69462;-41
2021/05/17 11:10:08;;;;;;;;;;;;;;;32.56;64.14;100579.03;5047285;28;66281;-40
2021/05/17 11:12:41;;;;;;;6.35;4.13;;;;;;;32.72;63.69;100578.28;5055223;28;69778;-40
2021/05/17 11:15:58;;;;;;;4.30;3.85;;;;;;;32.65;63.21;100580.31;5053379;27;65501;-40
2021/05/17 11:18:40;;;;;;;6.93;4.18;;;;;;;32.62;63.58;100583.50;5047420;28;69896;-40
2021/05/17 11:21:13;;;;;;;6.53;4.65;;;;;;;32.59;63.33;100589.41;5052187;28;65951;-40
2021/05/17 11:23:47;;;;;;;4.78;3.70;;;;;;;32.43;62.76;100559.19;5049522;28;69697;-40
2021/05/17 11:26:23;;;;;;;4.78;3.53;;;;;;;32.70;63.30;100618.44;5049155;28;65519;-39
2021/05/17 11:28:55;;;;;;;4.05;3.72;;;;;;;32.72;63.33;100621.75;5047478;28;69964;-40
2021/05/17 11:34:18;;;;;;;4.15;3.65;;;;;;;32.32;63.13;100589.91;5054396;28;70181;-39
2021/05/17 11:37:08;;;;;;;6.80;4.05;;;;;;;32.68;62.95;100655.88;5047207;28;67900;-40
2021/05/17 11:39:40;;;;;;;9.32;3.88;;;;;;;32.58;63.20;100642.91;5052973;28;69966;-40
2021/05/17 11:42:18;;;;;;;2.97;2.78;;;;;;;32.62;63.67;100656.81;5061306;27;66079;-42
2021/05/17 11:44:55;;;;;;;3.80;3.47;;;;;;;32.59;63.39;100671.69;5043437;28;70330;-39
2021/05/17 11:47:34;;;;;;;6.03;3.00;;;;;;;32.55;63.67;100677.84;5062019;27;65598;-40
2021/05/17 11:50:09;;;;;;;3.38;2.67;;;;;;;32.58;63.17;100688.25;5048466;28;69964;-39
2021/05/17 11:52:46;;;;;;;3.47;3.17;;;;;;;32.29;63.63;100650.09;5049395;28;66909;-39
2021/05/17 11:55:20;;;;;;;10.95;2.60;;;;;;;32.60;64.09;100716.81;5055677;28;70380;-40
2021/05/17 11:57:56;;;;;;;3.70;3.40;;;;;;;32.63;64.06;100715.53;5049953;28;65362;-40
2021/05/17 12:00:29;;;;;;;5.43;4.22;;;;;;;32.58;65.11;100720.81;5042755;28;70269;-39
2021/05/17 12:03:10;;;;;;;5.82;4.72;;;;;;;32.28;64.76;100670.13;5050687;28;66222;-39
2021/05/17 12:05:41;;;;;;;10.45;5.93;;;;;;;32.62;65.48;100720.09;5045927;28;69108;-40
2021/05/17 12:08:16;;;;;;;11.65;7.13;;;;;;;32.56;63.08;100728.38;5050738;28;65412;-39
2021/05/17 12:10:47;;;;;;;12.55;7.25;;;;;;;32.40;60.53;100728.00;5049293;28;69311;-40
2021/05/17 12:13:18;;;;;;;12.57;7.72;;;;;;;32.24;58.44;100740.34;5055772;28;66801;-38
2021/05/17 12:15:49;;;;;;;7.13;6.43;;;;;;;32.02;56.36;100731.91;5053986;28;70245;-39
2021/05/17 12:18:21;;;;;;;;;;;;;;;31.56;55.72;100738.78;5049762;28;66370;-39
2021/05/17 12:21:11;;;;;;;13.48;7.40;;;;;;;31.41;53.12;100713.97;5040101;28;69106;-40
2021/05/17 12:23:49;;;;;;;14.10;6.88;;;;;;;31.39;52.71;100725.03;5050966;28;66159;-39
2021/05/17 12:26:52;;;;;;;10.50;6.72;;;;;;;31.05;52.12;100725.63;5040162;28;70101;-40
2021/05/17 12:29:22;;;;;;;11.32;6.13;;;;;;;30.94;51.00;100722.59;5047186;28;66515;-39
2021/05/17 12:32:08;;;;;;;14.07;5.68;;;;;;;30.48;51.21;100682.44;5031517;28;69218;-39
2021/05/17 12:34:58;;;;;;;7.70;6.35;;;;;;;30.57;49.88;100724.41;5055027;27;66589;-40